sensor_id;sensor_type;location;lat;lon;timestamp;pressure;altitude;pressure_sealevel;temperature;humidity
48527;BME280;34317;51.660;5.824;2023-07-31T00:00:19;100968.13;;;20.20;55.41
48527;BME280;34317;51.660;5.824;2023-07-31T00:02:46;100968.84;;;20.22;55.31
48527;BME280;34317;51.660;5.824;2023-07-31T00:05:13;100969.56;;;20.24;55.44
48527;BME280;34317;51.660;5.824;2023-07-31T00:07:40;100966.75;;;20.26;55.40
48527;BME280;34317;51.660;5.824;2023-07-31T00:10:07;100966.53;;;20.29;55.43
48527;BME280;34317;51.660;5.824;2023-07-31T00:12:35;100961.97;;;20.29;55.43
48527;BME280;34317;51.660;5.824;2023-07-31T00:15:02;100958.28;;;20.30;55.40
48527;BME280;34317;51.660;5.824;2023-07-31T00:17:29;100958.28;;;20.30;55.40
48527;BME280;34317;51.660;5.824;2023-07-31T00:19:56;100965.41;;;20.31;55.40
48527;BME280;34317;51.660;5.824;2023-07-31T00:22:23;100950.09;;;20.32;55.49
48527;BME280;34317;51.660;5.824;2023-07-31T00:24:51;100968.94;;;20.32;55.41
48527;BME280;34317;51.660;5.824;2023-07-31T00:27:18;100961.69;;;20.32;55.62
48527;BME280;34317;51.660;5.824;2023-07-31T00:29:45;100961.69;;;20.32;55.50
48527;BME280;34317;51.660;5.824;2023-07-31T00:32:12;100961.69;;;20.32;55.44
48527;BME280;34317;51.660;5.824;2023-07-31T00:34:39;100956.31;;;20.32;55.58
48527;BME280;34317;51.660;5.824;2023-07-31T00:37:06;100954.63;;;20.31;55.60
48527;BME280;34317;51.660;5.824;2023-07-31T00:39:34;100959.16;;;20.31;55.58
48527;BME280;34317;51.660;5.824;2023-07-31T00:42:02;100954.63;;;20.31;55.64
48527;BME280;34317;51.660;5.824;2023-07-31T00:44:29;100952.78;;;20.32;55.66
48527;BME280;34317;51.660;5.824;2023-07-31T00:46:56;100933.13;;;20.31;55.63
48527;BME280;34317;51.660;5.824;2023-07-31T00:49:23;100942.88;;;20.32;55.60
48527;BME280;34317;51.660;5.824;2023-07-31T00:51:50;100942.16;;;20.30;55.67
48527;BME280;34317;51.660;5.824;2023-07-31T00:54:17;100958.28;;;20.30;55.72
48527;BME280;34317;51.660;5.824;2023-07-31T00:56:45;100954.75;;;20.30;55.74
48527;BME280;34317;51.660;5.824;2023-07-31T00:59:12;100952.06;;;20.30;55.84
48527;BME280;34317;51.660;5.824;2023-07-31T01:01:40;100947.53;;;20.30;55.83
48527;BME280;34317;51.660;5.824;2023-07-31T01:04:07;100936.78;;;20.30;55.65
48527;BME280;34317;51.660;5.824;2023-07-31T01:09:18;100933.13;;;20.31;55.84
48527;BME280;34317;51.660;5.824;2023-07-31T01:11:48;100945.56;;;20.32;55.84
48527;BME280;34317;51.660;5.824;2023-07-31T01:14:18;100932.13;;;20.32;55.86
48527;BME280;34317;51.660;5.824;2023-07-31T01:16:45;100929.44;;;20.32;55.86
48527;BME280;34317;51.660;5.824;2023-07-31T01:19:12;100940.19;;;20.32;55.76
48527;BME280;34317;51.660;5.824;2023-07-31T01:21:45;100933.13;;;20.31;55.91
48527;BME280;34317;51.660;5.824;2023-07-31T01:24:22;100929.44;;;20.32;55.91
48527;BME280;34317;51.660;5.824;2023-07-31T01:27:34;100930.44;;;20.31;55.87
48527;BME280;34317;51.660;5.824;2023-07-31T01:29:55;100926.00;;;20.30;55.90
48527;BME280;34317;51.660;5.824;2023-07-31T01:32:23;100934.81;;;20.32;55.91
48527;BME280;34317;51.660;5.824;2023-07-31T01:34:53;100933.13;;;20.31;55.93
48527;BME280;34317;51.660;5.824;2023-07-31T01:37:20;100936.53;;;20.33;55.91
48527;BME280;34317;51.660;5.824;2023-07-31T01:39:48;100934.81;;;20.32;55.83
48527;BME280;34317;51.660;5.824;2023-07-31T01:42:15;100929.44;;;20.32;55.95
48527;BME280;34317;51.660;5.824;2023-07-31T01:44:42;100933.84;;;20.33;55.97
48527;BME280;34317;51.660;5.824;2023-07-31T01:47:09;100929.44;;;20.32;56.04
48527;BME280;34317;51.660;5.824;2023-07-31T01:49:37;100922.34;;;20.31;55.96
48527;BME280;34317;51.660;5.824;2023-07-31T01:52:05;100927.75;;;20.31;56.03
48527;BME280;34317;51.660;5.824;2023-07-31T01:54:33;100916.97;;;20.31;56.00
48527;BME280;34317;51.660;5.824;2023-07-31T01:57:00;100915.25;;;20.30;56.00
48527;BME280;34317;51.660;5.824;2023-07-31T01:59:27;100915.25;;;20.30;56.06
48527;BME280;34317;51.660;5.824;2023-07-31T02:01:55;100906.47;;;20.28;56.02
48527;BME280;34317;51.660;5.824;2023-07-31T02:04:24;100908.19;;;20.29;56.07
48527;BME280;34317;51.660;5.824;2023-07-31T02:06:52;100915.25;;;20.30;56.06
48527;BME280;34317;51.660;5.824;2023-07-31T02:09:19;100909.88;;;20.30;56.11
48527;BME280;34317;51.660;5.824;2023-07-31T02:11:46;100909.03;;;20.30;56.06
48527;BME280;34317;51.660;5.824;2023-07-31T02:14:13;100902.81;;;20.29;56.06
48527;BME280;34317;51.660;5.824;2023-07-31T02:16:40;100894.03;;;20.27;56.09
48527;BME280;34317;51.660;5.824;2023-07-31T02:19:09;100894.03;;;20.27;56.01
48527;BME280;34317;51.660;5.824;2023-07-31T02:21:36;100894.88;;;20.28;55.95
48527;BME280;34317;51.660;5.824;2023-07-31T02:24:03;100886.91;;;20.26;56.03
48527;BME280;34317;51.660;5.824;2023-07-31T02:26:31;100885.22;;;20.25;56.13
48527;BME280;34317;51.660;5.824;2023-07-31T02:28:58;100876.44;;;20.23;56.09
48527;BME280;34317;51.660;5.824;2023-07-31T02:31:27;100888.16;;;20.22;56.13
48527;BME280;34317;51.660;5.824;2023-07-31T02:33:54;100892.72;;;20.21;56.18
48527;BME280;34317;51.660;5.824;2023-07-31T02:36:21;100887.44;;;20.20;56.09
48527;BME280;34317;51.660;5.824;2023-07-31T02:38:48;100885.72;;;20.19;56.05
48527;BME280;34317;51.660;5.824;2023-07-31T02:41:15;100878.66;;;20.18;56.07
48527;BME280;34317;51.660;5.824;2023-07-31T02:43:42;100887.69;;;20.17;56.14
48527;BME280;34317;51.660;5.824;2023-07-31T02:46:10;100886.00;;;20.16;56.13
48527;BME280;34317;51.660;5.824;2023-07-31T02:48:37;100885.13;;;20.15;56.10
48527;BME280;34317;51.660;5.824;2023-07-31T02:51:05;100883.44;;;20.14;56.12
48527;BME280;34317;51.660;5.824;2023-07-31T02:53:32;100893.34;;;20.14;56.12
48527;BME280;34317;51.660;5.824;2023-07-31T02:56:00;100871.84;;;20.14;56.16
48527;BME280;34317;51.660;5.824;2023-07-31T02:58:27;100872.69;;;20.14;56.16
48527;BME280;34317;51.660;5.824;2023-07-31T03:00:54;100877.22;;;20.14;56.15
48527;BME280;34317;51.660;5.824;2023-07-31T03:03:22;100874.53;;;20.14;56.06
48527;BME280;34317;51.660;5.824;2023-07-31T03:05:49;100868.28;;;20.13;56.11
48527;BME280;34317;51.660;5.824;2023-07-31T03:08:16;100874.53;;;20.14;56.24
48527;BME280;34317;51.660;5.824;2023-07-31T03:10:43;100866.47;;;20.14;56.18
48527;BME280;34317;51.660;5.824;2023-07-31T03:13:10;100870.13;;;20.13;56.22
48527;BME280;34317;51.660;5.824;2023-07-31T03:15:37;100870.13;;;20.13;56.15
48527;BME280;34317;51.660;5.824;2023-07-31T03:18:04;100867.44;;;20.13;56.17
48527;BME280;34317;51.660;5.824;2023-07-31T03:20:31;100868.44;;;20.12;56.08
48527;BME280;34317;51.660;5.824;2023-07-31T03:22:58;100873.81;;;20.12;56.16
48527;BME280;34317;51.660;5.824;2023-07-31T03:25:25;100875.50;;;20.13;56.18
48527;BME280;34317;51.660;5.824;2023-07-31T03:27:52;100875.50;;;20.13;56.17
48527;BME280;34317;51.660;5.824;2023-07-31T03:30:19;100877.22;;;20.14;56.17
48527;BME280;34317;51.660;5.824;2023-07-31T03:32:46;100880.75;;;20.14;56.17
48527;BME280;34317;51.660;5.824;2023-07-31T03:35:13;100871.84;;;20.14;56.19
48527;BME280;34317;51.660;5.824;2023-07-31T03:37:41;100870.00;;;20.14;56.23
48527;BME280;34317;51.660;5.824;2023-07-31T03:40:08;100867.31;;;20.14;56.22
48527;BME280;34317;51.660;5.824;2023-07-31T03:42:36;100862.78;;;20.15;56.16
48527;BME280;34317;51.660;5.824;2023-07-31T03:45:04;100852.03;;;20.15;56.15
48527;BME280;34317;51.660;5.824;2023-07-31T03:47:31;100859.13;;;20.16;56.23
48527;BME280;34317;51.660;5.824;2023-07-31T03:49:58;100838.56;;;20.15;56.24
48527;BME280;34317;51.660;5.824;2023-07-31T03:52:25;100835.88;;;20.15;56.17
48527;BME280;34317;51.660;5.824;2023-07-31T03:54:52;100839.56;;;20.14;56.11
48527;BME280;34317;51.660;5.824;2023-07-31T03:57:19;100841.25;;;20.15;56.20
48527;BME280;34317;51.660;5.824;2023-07-31T03:59:46;100835.88;;;20.15;56.09
48527;BME280;34317;51.660;5.824;2023-07-31T04:02:13;100835.88;;;20.15;56.29
48527;BME280;34317;51.660;5.824;2023-07-31T04:04:41;100835.88;;;20.15;56.22
48527;BME280;34317;51.660;5.824;2023-07-31T04:07:08;100833.91;;;20.17;56.16
48527;BME280;34317;51.660;5.824;2023-07-31T04:09:35;100829.41;;;20.17;56.16
48527;BME280;34317;51.660;5.824;2023-07-31T04:12:03;100825.72;;;20.18;56.31
48527;BME280;34317;51.660;5.824;2023-07-31T04:14:30;100828.28;;;20.20;56.27
48527;BME280;34317;51.660;5.824;2023-07-31T04:16:57;100827.28;;;20.21;56.29
48527;BME280;34317;51.660;5.824;2023-07-31T04:19:24;100828.03;;;20.23;56.30
48527;BME280;34317;51.660;5.824;2023-07-31T04:21:52;100823.50;;;20.23;56.17
48527;BME280;34317;51.660;5.824;2023-07-31T04:24:19;100830.44;;;20.26;56.17
48527;BME280;34317;51.660;5.824;2023-07-31T04:26:51;100821.41;;;20.27;56.26
48527;BME280;34317;51.660;5.824;2023-07-31T04:29:18;100820.41;;;20.28;56.28
48527;BME280;34317;51.660;5.824;2023-07-31T04:31:45;100818.41;;;20.30;56.26
48527;BME280;34317;51.660;5.824;2023-07-31T04:34:12;100821.81;;;20.32;56.35
48527;BME280;34317;51.660;5.824;2023-07-31T04:36:39;100822.56;;;20.34;56.18
48527;BME280;34317;51.660;5.824;2023-07-31T04:39:08;100821.56;;;20.35;56.37
48527;BME280;34317;51.660;5.824;2023-07-31T04:41:35;100810.56;;;20.38;56.30
48527;BME280;34317;51.660;5.824;2023-07-31T04:44:02;100812.25;;;20.39;56.27
48527;BME280;34317;51.660;5.824;2023-07-31T04:46:30;100804.88;;;20.41;56.26
48527;BME280;34317;51.660;5.824;2023-07-31T04:48:57;100801.22;;;20.42;56.42
48527;BME280;34317;51.660;5.824;2023-07-31T04:51:24;100800.97;;;20.46;56.30
48527;BME280;34317;51.660;5.824;2023-07-31T04:53:52;100804.38;;;20.48;56.28
48527;BME280;34317;51.660;5.824;2023-07-31T04:56:19;100797.03;;;20.50;56.31
48527;BME280;34317;51.660;5.824;2023-07-31T04:58:46;100790.63;;;20.51;56.30
48527;BME280;34317;51.660;5.824;2023-07-31T05:01:13;100796.72;;;20.53;56.41
48527;BME280;34317;51.660;5.824;2023-07-31T05:03:40;100788.66;;;20.53;56.28
48527;BME280;34317;51.660;5.824;2023-07-31T05:06:07;100798.44;;;20.54;56.18
48527;BME280;34317;51.660;5.824;2023-07-31T05:08:34;100798.44;;;20.54;56.29
48527;BME280;34317;51.660;5.824;2023-07-31T05:11:02;100787.69;;;20.54;56.34
48527;BME280;34317;51.660;5.824;2023-07-31T05:13:29;100782.03;;;20.57;56.35
48527;BME280;34317;51.660;5.824;2023-07-31T05:15:57;100785.44;;;20.59;56.32
48527;BME280;34317;51.660;5.824;2023-07-31T05:18:27;100783.50;;;20.61;56.35
48527;BME280;34317;51.660;5.824;2023-07-31T05:20:55;100774.44;;;20.62;56.33
48527;BME280;34317;51.660;5.824;2023-07-31T05:23:22;100776.16;;;20.63;56.24
48527;BME280;34317;51.660;5.824;2023-07-31T05:25:49;100767.06;;;20.64;56.40
48527;BME280;34317;51.660;5.824;2023-07-31T05:28:16;100767.94;;;20.65;56.34
48527;BME280;34317;51.660;5.824;2023-07-31T05:30:43;100761.44;;;20.67;56.43
48527;BME280;34317;51.660;5.824;2023-07-31T05:33:10;100765.53;;;20.71;56.40
48527;BME280;34317;51.660;5.824;2023-07-31T05:35:40;100758.88;;;20.75;56.33
48527;BME280;34317;51.660;5.824;2023-07-31T05:38:07;100755.22;;;20.76;56.26
48527;BME280;34317;51.660;5.824;2023-07-31T05:40:34;100755.22;;;20.76;56.32
48527;BME280;34317;51.660;5.824;2023-07-31T05:43:02;100760.59;;;20.76;56.21
48527;BME280;34317;51.660;5.824;2023-07-31T05:45:29;100757.19;;;20.74;56.33
48527;BME280;34317;51.660;5.824;2023-07-31T05:47:56;100747.41;;;20.73;56.33
48527;BME280;34317;51.660;5.824;2023-07-31T05:50:24;100748.41;;;20.72;56.34
48527;BME280;34317;51.660;5.824;2023-07-31T05:52:51;100750.09;;;20.73;56.28
48527;BME280;34317;51.660;5.824;2023-07-31T05:55:18;100753.78;;;20.72;56.31
48527;BME280;34317;51.660;5.824;2023-07-31T05:57:45;100748.41;;;20.72;56.35
48527;BME280;34317;51.660;5.824;2023-07-31T06:00:12;100748.41;;;20.72;56.43
48527;BME280;34317;51.660;5.824;2023-07-31T06:02:40;100742.16;;;20.72;56.41
48527;BME280;34317;51.660;5.824;2023-07-31T06:05:07;100745.00;;;20.70;56.41
48527;BME280;34317;51.660;5.824;2023-07-31T06:07:34;100735.34;;;20.68;56.52
48527;BME280;34317;51.660;5.824;2023-07-31T06:10:01;100747.25;;;20.65;56.47
48527;BME280;34317;51.660;5.824;2023-07-31T06:12:32;100731.38;;;20.62;56.42
48527;BME280;34317;51.660;5.824;2023-07-31T06:14:59;100734.06;;;20.62;56.50
48527;BME280;34317;51.660;5.824;2023-07-31T06:17:26;100734.19;;;20.60;56.62
48527;BME280;34317;51.660;5.824;2023-07-31T06:19:54;100727.97;;;20.60;56.62
48527;BME280;34317;51.660;5.824;2023-07-31T06:22:21;100726.25;;;20.59;56.63
48527;BME280;34317;51.660;5.824;2023-07-31T06:24:48;100723.56;;;20.59;56.65
48527;BME280;34317;51.660;5.824;2023-07-31T06:27:15;100726.25;;;20.59;56.70
48527;BME280;34317;51.660;5.824;2023-07-31T06:29:42;100720.88;;;20.59;56.77
48527;BME280;34317;51.660;5.824;2023-07-31T06:32:10;100726.25;;;20.59;56.69
48527;BME280;34317;51.660;5.824;2023-07-31T06:34:37;100719.16;;;20.58;56.72
48527;BME280;34317;51.660;5.824;2023-07-31T06:37:04;100723.69;;;20.57;56.75
48527;BME280;34317;51.660;5.824;2023-07-31T06:39:31;100723.44;;;20.60;56.85
48527;BME280;34317;51.660;5.824;2023-07-31T06:41:58;100723.44;;;20.60;56.78
48527;BME280;34317;51.660;5.824;2023-07-31T06:44:25;100704.47;;;20.62;56.70
48527;BME280;34317;51.660;5.824;2023-07-31T06:46:53;100715.22;;;20.62;56.82
48527;BME280;34317;51.660;5.824;2023-07-31T06:49:20;100708.88;;;20.63;56.88
48527;BME280;34317;51.660;5.824;2023-07-31T06:51:47;100704.19;;;20.65;56.88
48527;BME280;34317;51.660;5.824;2023-07-31T06:54:14;100698.81;;;20.65;56.87
48527;BME280;34317;51.660;5.824;2023-07-31T06:56:41;100693.44;;;20.65;56.91
48527;BME280;34317;51.660;5.824;2023-07-31T06:59:08;100698.69;;;20.67;56.87
48527;BME280;34317;51.660;5.824;2023-07-31T07:01:35;100689.47;;;20.69;56.92
48527;BME280;34317;51.660;5.824;2023-07-31T07:04:03;100696.56;;;20.70;57.01
48527;BME280;34317;51.660;5.824;2023-07-31T07:06:30;100683.81;;;20.72;57.11
48527;BME280;34317;51.660;5.824;2023-07-31T07:08:57;100690.63;;;20.76;57.05
48527;BME280;34317;51.660;5.824;2023-07-31T07:11:24;100689.63;;;20.77;57.05
48527;BME280;34317;51.660;5.824;2023-07-31T07:13:51;100681.53;;;20.77;57.14
48527;BME280;34317;51.660;5.824;2023-07-31T07:16:18;100686.91;;;20.77;57.02
48527;BME280;34317;51.660;5.824;2023-07-31T07:18:46;100683.25;;;20.78;57.00
48527;BME280;34317;51.660;5.824;2023-07-31T07:21:30;100679.72;;;20.78;57.04
48527;BME280;34317;51.660;5.824;2023-07-31T07:23:57;100677.03;;;20.78;57.14
48527;BME280;34317;51.660;5.824;2023-07-31T07:26:24;100682.41;;;20.78;57.17
48527;BME280;34317;51.660;5.824;2023-07-31T07:28:51;100677.88;;;20.78;57.16
48527;BME280;34317;51.660;5.824;2023-07-31T07:31:19;100679.59;;;20.79;57.09
48527;BME280;34317;51.660;5.824;2023-07-31T07:33:46;100674.91;;;20.82;57.09
48527;BME280;34317;51.660;5.824;2023-07-31T07:36:13;100674.03;;;20.81;57.15
48527;BME280;34317;51.660;5.824;2023-07-31T07:38:40;100677.59;;;20.82;57.07
48527;BME280;34317;51.660;5.824;2023-07-31T07:41:08;100678.44;;;20.82;57.18
48527;BME280;34317;51.660;5.824;2023-07-31T07:43:35;100668.53;;;20.83;57.28
48527;BME280;34317;51.660;5.824;2023-07-31T07:46:02;100677.31;;;20.85;57.38
48527;BME280;34317;51.660;5.824;2023-07-31T07:48:29;100671.66;;;20.88;57.36
48527;BME280;34317;51.660;5.824;2023-07-31T07:50:56;100666.97;;;20.90;57.40
48527;BME280;34317;51.660;5.824;2023-07-31T07:53:23;100674.78;;;20.93;57.39
48527;BME280;34317;51.660;5.824;2023-07-31T07:55:50;100671.91;;;20.94;57.42
48527;BME280;34317;51.660;5.824;2023-07-31T07:58:17;100661.03;;;20.96;57.32
48527;BME280;34317;51.660;5.824;2023-07-31T08:00:51;100665.44;;;20.97;57.33
48527;BME280;34317;51.660;5.824;2023-07-31T08:03:18;100665.44;;;20.97;57.31
48527;BME280;34317;51.660;5.824;2023-07-31T08:05:45;100661.72;;;20.98;57.34
48527;BME280;34317;51.660;5.824;2023-07-31T08:08:15;100667.09;;;20.98;57.39
48527;BME280;34317;51.660;5.824;2023-07-31T08:10:43;100660.03;;;20.97;57.30
48527;BME280;34317;51.660;5.824;2023-07-31T08:13:11;100670.81;;;20.97;57.30
48527;BME280;34317;51.660;5.824;2023-07-31T08:15:40;100657.47;;;20.95;57.32
48527;BME280;34317;51.660;5.824;2023-07-31T08:18:09;100658.31;;;20.96;57.29
48527;BME280;34317;51.660;5.824;2023-07-31T08:20:36;100658.31;;;20.96;57.48
48527;BME280;34317;51.660;5.824;2023-07-31T08:23:04;100661.03;;;20.96;57.50
48527;BME280;34317;51.660;5.824;2023-07-31T08:25:31;100660.31;;;20.94;57.44
48527;BME280;34317;51.660;5.824;2023-07-31T08:28:04;100662.03;;;20.95;57.42
48527;BME280;34317;51.660;5.824;2023-07-31T08:30:32;100662.03;;;20.95;57.49
48527;BME280;34317;51.660;5.824;2023-07-31T08:33:00;100664.72;;;20.95;57.51
48527;BME280;34317;51.660;5.824;2023-07-31T08:35:27;100660.03;;;20.97;57.58
48527;BME280;34317;51.660;5.824;2023-07-31T08:37:57;100658.06;;;20.99;57.60
48527;BME280;34317;51.660;5.824;2023-07-31T08:40:24;100664.84;;;21.03;57.57
48527;BME280;34317;51.660;5.824;2023-07-31T08:42:53;100660.88;;;21.07;57.62
48527;BME280;34317;51.660;5.824;2023-07-31T08:45:20;100658.88;;;21.09;57.65
48527;BME280;34317;51.660;5.824;2023-07-31T08:47:48;100658.03;;;21.09;57.60
48527;BME280;34317;51.660;5.824;2023-07-31T08:50:16;100659.75;;;21.10;57.71
48527;BME280;34317;51.660;5.824;2023-07-31T08:52:45;100655.22;;;21.10;57.63
48527;BME280;34317;51.660;5.824;2023-07-31T08:55:12;100659.75;;;21.10;57.63
48527;BME280;34317;51.660;5.824;2023-07-31T08:57:39;100657.91;;;21.10;57.54
48527;BME280;34317;51.660;5.824;2023-07-31T09:00:08;100661.44;;;21.11;57.75
48527;BME280;34317;51.660;5.824;2023-07-31T09:05:08;100664.00;;;21.12;57.64
48527;BME280;34317;51.660;5.824;2023-07-31T09:07:35;100656.91;;;21.11;57.65
48527;BME280;34317;51.660;5.824;2023-07-31T09:10:03;100650.69;;;21.11;57.86
48527;BME280;34317;51.660;5.824;2023-07-31T09:12:31;100658.63;;;21.12;57.77
48527;BME280;34317;51.660;5.824;2023-07-31T09:14:58;100662.03;;;21.14;57.75
48527;BME280;34317;51.660;5.824;2023-07-31T09:17:37;100662.84;;;21.15;57.71
48527;BME280;34317;51.660;5.824;2023-07-31T09:22:42;100650.09;;;21.17;57.92
48527;BME280;34317;51.660;5.824;2023-07-31T09:25:19;100646.56;;;21.16;57.79
48527;BME280;34317;51.660;5.824;2023-07-31T09:27:58;100648.41;;;21.16;57.69
48527;BME280;34317;51.660;5.824;2023-07-31T09:30:26;100647.56;;;21.15;57.75
48527;BME280;34317;51.660;5.824;2023-07-31T09:33:03;100640.47;;;21.14;57.87
48527;BME280;34317;51.660;5.824;2023-07-31T09:35:31;100653.22;;;21.12;57.79
48527;BME280;34317;51.660;5.824;2023-07-31T09:37:59;100642.47;;;21.12;57.87
48527;BME280;34317;51.660;5.824;2023-07-31T09:40:30;100637.06;;;21.12;57.88
48527;BME280;34317;51.660;5.824;2023-07-31T09:43:04;100633.38;;;21.13;57.87
48527;BME280;34317;51.660;5.824;2023-07-31T09:45:33;100633.38;;;21.13;57.98
48527;BME280;34317;51.660;5.824;2023-07-31T09:48:12;100626.03;;;21.15;58.02
48527;BME280;34317;51.660;5.824;2023-07-31T09:50:40;100628.41;;;21.18;57.98
48527;BME280;34317;51.660;5.824;2023-07-31T09:53:07;100618.34;;;21.20;58.08
48527;BME280;34317;51.660;5.824;2023-07-31T09:55:36;100621.47;;;21.26;58.07
48527;BME280;34317;51.660;5.824;2023-07-31T09:58:04;100632.81;;;21.29;58.05
48527;BME280;34317;51.660;5.824;2023-07-31T10:00:32;100630.69;;;21.33;58.04
48527;BME280;34317;51.660;5.824;2023-07-31T10:03:00;100629.38;;;21.37;58.00
48527;BME280;34317;51.660;5.824;2023-07-31T10:05:33;100627.13;;;21.42;58.14
48527;BME280;34317;51.660;5.824;2023-07-31T10:08:00;100628.56;;;21.46;57.97
48527;BME280;34317;51.660;5.824;2023-07-31T10:10:29;100628.28;;;21.49;58.18
48527;BME280;34317;51.660;5.824;2023-07-31T10:12:56;100629.69;;;21.53;58.05
48527;BME280;34317;51.660;5.824;2023-07-31T10:15:24;100623.84;;;21.58;58.05
48527;BME280;34317;51.660;5.824;2023-07-31T10:17:52;100619.00;;;21.62;58.04
48527;BME280;34317;51.660;5.824;2023-07-31T10:20:21;100623.09;;;21.66;58.16
48527;BME280;34317;51.660;5.824;2023-07-31T10:22:50;100621.81;;;21.70;58.07
48527;BME280;34317;51.660;5.824;2023-07-31T10:25:18;100623.94;;;21.76;58.17
48527;BME280;34317;51.660;5.824;2023-07-31T10:27:47;100622.19;;;21.85;58.29
48527;BME280;34317;51.660;5.824;2023-07-31T10:30:15;100621.44;;;21.92;58.23
48527;BME280;34317;51.660;5.824;2023-07-31T10:32:46;100615.47;;;21.99;58.08
48527;BME280;34317;51.660;5.824;2023-07-31T10:35:15;100614.16;;;22.03;58.17
48527;BME280;34317;51.660;5.824;2023-07-31T10:37:43;100609.00;;;22.09;58.04
48527;BME280;34317;51.660;5.824;2023-07-31T10:40:11;100616.38;;;22.17;58.18
48527;BME280;34317;51.660;5.824;2023-07-31T10:42:50;100616.50;;;22.25;58.18
48527;BME280;34317;51.660;5.824;2023-07-31T10:45:24;100603.78;;;22.35;58.12
48527;BME280;34317;51.660;5.824;2023-07-31T10:48:00;100601.50;;;22.41;58.17
48527;BME280;34317;51.660;5.824;2023-07-31T10:50:31;100610.00;;;22.46;58.06
48527;BME280;34317;51.660;5.824;2023-07-31T10:53:01;100604.25;;;22.49;57.79
48527;BME280;34317;51.660;5.824;2023-07-31T10:55:29;100606.66;;;22.52;57.94
48527;BME280;34317;51.660;5.824;2023-07-31T10:58:12;100611.78;;;22.55;58.01
48527;BME280;34317;51.660;5.824;2023-07-31T11:00:40;100601.66;;;22.57;57.89
48527;BME280;34317;51.660;5.824;2023-07-31T11:03:09;100599.66;;;22.59;57.91
48527;BME280;34317;51.660;5.824;2023-07-31T11:08:24;100595.94;;;22.60;57.73
48527;BME280;34317;51.660;5.824;2023-07-31T11:15:58;100607.38;;;22.54;57.63
48527;BME280;34317;51.660;5.824;2023-07-31T11:18:26;100613.09;;;22.51;57.82
48527;BME280;34317;51.660;5.824;2023-07-31T11:20:53;100603.44;;;22.48;57.64
48527;BME280;34317;51.660;5.824;2023-07-31T11:23:22;100607.97;;;22.48;57.77
48527;BME280;34317;51.660;5.824;2023-07-31T11:25:49;100604.25;;;22.49;57.78
48527;BME280;34317;51.660;5.824;2023-07-31T11:28:17;100596.91;;;22.51;58.04
48527;BME280;34317;51.660;5.824;2023-07-31T11:30:46;100607.06;;;22.57;57.99
48527;BME280;34317;51.660;5.824;2023-07-31T11:33:14;100593.97;;;22.62;58.06
48527;BME280;34317;51.660;5.824;2023-07-31T11:35:45;100582.22;;;22.71;58.24
48527;BME280;34317;51.660;5.824;2023-07-31T11:38:12;100593.81;;;22.82;58.24
48527;BME280;34317;51.660;5.824;2023-07-31T11:40:48;100589.16;;;22.92;58.22
48527;BME280;34317;51.660;5.824;2023-07-31T11:43:15;100590.22;;;22.99;58.18
48527;BME280;34317;51.660;5.824;2023-07-31T11:45:46;100596.44;;;23.09;58.12
48527;BME280;34317;51.660;5.824;2023-07-31T11:48:24;100584.66;;;23.19;57.94
48527;BME280;34317;51.660;5.824;2023-07-31T11:50:51;100581.34;;;23.25;58.06
48527;BME280;34317;51.660;5.824;2023-07-31T11:53:26;100578.84;;;23.31;57.98
48527;BME280;34317;51.660;5.824;2023-07-31T11:55:55;100576.38;;;23.38;57.80
48527;BME280;34317;51.660;5.824;2023-07-31T11:58:24;100572.19;;;23.44;58.00
48527;BME280;34317;51.660;5.824;2023-07-31T12:00:51;100569.00;;;23.48;57.66
48527;BME280;34317;51.660;5.824;2023-07-31T12:03:19;100572.06;;;23.54;57.79
48527;BME280;34317;51.660;5.824;2023-07-31T12:05:47;100569.75;;;23.59;57.82
48527;BME280;34317;51.660;5.824;2023-07-31T12:08:15;100578.38;;;23.62;57.59
48527;BME280;34317;51.660;5.824;2023-07-31T12:10:43;100581.91;;;23.63;57.57
48527;BME280;34317;51.660;5.824;2023-07-31T12:13:11;100574.50;;;23.65;57.47
48527;BME280;34317;51.660;5.824;2023-07-31T12:15:47;100579.91;;;23.65;57.66
48527;BME280;34317;51.660;5.824;2023-07-31T12:18:19;100569.09;;;23.65;57.74
48527;BME280;34317;51.660;5.824;2023-07-31T12:20:47;100578.19;;;23.64;57.39
48527;BME280;34317;51.660;5.824;2023-07-31T12:23:15;100579.06;;;23.64;57.42
48527;BME280;34317;51.660;5.824;2023-07-31T12:25:43;100574.50;;;23.65;57.55
48527;BME280;34317;51.660;5.824;2023-07-31T12:28:10;100594.41;;;23.64;57.29
48527;BME280;34317;51.660;5.824;2023-07-31T12:30:40;100577.34;;;23.63;57.28
48527;BME280;34317;51.660;5.824;2023-07-31T12:33:12;100583.94;;;23.61;57.40
48527;BME280;34317;51.660;5.824;2023-07-31T12:35:40;100575.16;;;23.59;57.30
48527;BME280;34317;51.660;5.824;2023-07-31T12:38:08;100570.03;;;23.56;57.54
48527;BME280;34317;51.660;5.824;2023-07-31T12:40:38;100571.06;;;23.55;57.34
48527;BME280;34317;51.660;5.824;2023-07-31T12:43:06;100561.25;;;23.54;57.36
48527;BME280;34317;51.660;5.824;2023-07-31T12:45:34;100562.97;;;23.55;57.47
48527;BME280;34317;51.660;5.824;2023-07-31T12:48:01;100565.31;;;23.58;57.57
48527;BME280;34317;51.660;5.824;2023-07-31T12:50:28;100555.53;;;23.57;57.39
48527;BME280;34317;51.660;5.824;2023-07-31T12:52:56;100551.81;;;23.58;57.64
48527;BME280;34317;51.660;5.824;2023-07-31T12:55:23;100549.63;;;23.61;57.52
48527;BME280;34317;51.660;5.824;2023-07-31T12:57:50;100542.34;;;23.62;57.71
48527;BME280;34317;51.660;5.824;2023-07-31T13:00:18;100533.25;;;23.63;57.35
48527;BME280;34317;51.660;5.824;2023-07-31T13:02:46;100529.88;;;23.61;57.53
48527;BME280;34317;51.660;5.824;2023-07-31T13:05:13;100530.69;;;23.61;57.51
48527;BME280;34317;51.660;5.824;2023-07-31T13:07:40;100524.47;;;23.61;57.37
48527;BME280;34317;51.660;5.824;2023-07-31T13:10:07;100521.06;;;23.59;57.40